createdAt,value
2023-08-13T00:01:15.117Z,15.05
2023-08-13T00:03:42.913Z,16.35
2023-08-13T00:06:10.586Z,14.75
2023-08-13T00:08:38.165Z,16.15
2023-08-13T00:11:13.238Z,13.73
2023-08-13T00:13:41.824Z,13.18
2023-08-13T00:16:11.771Z,16.35
2023-08-13T00:18:39.570Z,18.48
2023-08-13T00:21:07.412Z,17.42
2023-08-13T00:23:35.381Z,15.85
2023-08-13T00:26:03.747Z,14.45
2023-08-13T00:28:31.966Z,15.98
2023-08-13T00:31:00.825Z,16.08
2023-08-13T00:33:28.595Z,19.23
2023-08-13T00:35:56.497Z,16.80
2023-08-13T00:38:24.166Z,13.80
2023-08-13T00:40:51.908Z,13.85
2023-08-13T00:43:19.477Z,14.43
2023-08-13T00:45:47.439Z,16.85
2023-08-13T00:48:15.200Z,17.27
2023-08-13T00:50:45.235Z,18.17
2023-08-13T00:53:13.370Z,16.60
2023-08-13T00:55:41.227Z,15.35
2023-08-13T00:58:08.939Z,13.38
2023-08-13T01:00:36.576Z,14.07
2023-08-13T01:03:04.367Z,14.70
2023-08-13T01:05:42.955Z,21.67
2023-08-13T01:08:23.804Z,15.73
2023-08-13T01:11:02.936Z,14.63
2023-08-13T01:13:43.789Z,17.30
2023-08-13T01:16:12.977Z,14.38
2023-08-13T01:18:41.839Z,16.85
2023-08-13T01:21:09.455Z,22.45
2023-08-13T01:23:37.199Z,17.13
2023-08-13T01:26:20.305Z,18.55
2023-08-13T01:29:00.764Z,17.42
2023-08-13T01:31:36.805Z,16.67
2023-08-13T01:34:05.531Z,20.60
2023-08-13T01:36:34.308Z,19.50
2023-08-13T01:39:02.661Z,16.35
2023-08-13T01:41:46.235Z,14.00
2023-08-13T01:44:17.071Z,18.85
2023-08-13T01:46:45.179Z,19.65
2023-08-13T01:49:13.155Z,21.15
2023-08-13T01:51:41.179Z,24.08
2023-08-13T01:54:09.044Z,19.10
2023-08-13T01:56:38.716Z,23.90
2023-08-13T01:59:06.693Z,17.65
2023-08-13T02:01:34.780Z,16.98
2023-08-13T02:04:04.253Z,23.55
2023-08-13T02:06:38.180Z,19.35
2023-08-13T02:09:08.157Z,19.63
2023-08-13T02:11:43.838Z,17.23
2023-08-13T02:14:24.249Z,14.85
2023-08-13T02:16:53.572Z,16.10
2023-08-13T02:19:21.576Z,17.45
2023-08-13T02:21:49.368Z,17.27
2023-08-13T02:24:19.276Z,20.35
2023-08-13T02:26:46.969Z,16.25
2023-08-13T02:29:14.599Z,24.75
2023-08-13T02:31:42.333Z,13.32
2023-08-13T02:34:09.996Z,19.40
2023-08-13T02:36:38.230Z,20.70
2023-08-13T02:39:05.778Z,18.80
2023-08-13T02:41:33.353Z,20.80
2023-08-13T02:44:18.741Z,18.20
2023-08-13T02:47:36.557Z,22.85
2023-08-13T02:50:07.946Z,18.17
2023-08-13T02:53:11.364Z,17.63
2023-08-13T02:56:45.150Z,20.27
2023-08-13T03:00:46.929Z,19.27
2023-08-13T03:02:51.460Z,14.77
2023-08-13T03:05:19.253Z,18.67
2023-08-13T03:07:47.143Z,15.32
2023-08-13T03:10:14.691Z,16.65
2023-08-13T03:12:42.464Z,16.25
2023-08-13T03:15:10.250Z,15.45
2023-08-13T03:17:39.012Z,15.73
2023-08-13T03:20:07.221Z,13.55
2023-08-13T03:22:35.041Z,19.02
2023-08-13T03:25:03.811Z,19.80
2023-08-13T03:27:31.774Z,15.93
2023-08-13T03:29:59.309Z,19.17
2023-08-13T03:32:27.409Z,16.85
2023-08-13T03:34:55.122Z,15.07
2023-08-13T03:37:22.877Z,16.98
2023-08-13T03:39:50.920Z,19.77
2023-08-13T03:42:18.582Z,15.52
2023-08-13T03:44:46.296Z,18.55
2023-08-13T03:47:19.844Z,15.25
2023-08-13T03:49:48.921Z,14.48
2023-08-13T03:52:16.852Z,16.02
2023-08-13T03:54:44.804Z,14.40
2023-08-13T03:57:12.395Z,16.27
2023-08-13T03:59:40.247Z,18.02
2023-08-13T04:02:09.519Z,19.48
2023-08-13T04:04:37.302Z,17.52
2023-08-13T04:07:10.260Z,23.38
2023-08-13T04:09:38.710Z,21.50
2023-08-13T04:12:07.341Z,16.60
2023-08-13T04:40:04.091Z,18.37
2023-08-13T04:42:34.306Z,19.48
2023-08-13T04:45:02.207Z,17.35
2023-08-13T04:47:31.463Z,18.60
2023-08-13T04:49:59.167Z,19.80
2023-08-13T04:52:26.826Z,19.45
2023-08-13T04:54:54.778Z,17.27
2023-08-13T04:57:24.372Z,17.35
2023-08-13T04:59:52.984Z,13.75
2023-08-13T05:02:22.349Z,14.77
2023-08-13T05:04:49.874Z,15.32
2023-08-13T05:07:18.141Z,20.70
2023-08-13T05:09:45.979Z,21.35
2023-08-13T05:12:14.045Z,18.70
2023-08-13T05:14:42.005Z,13.43
2023-08-13T05:17:27.985Z,16.70
2023-08-13T05:19:55.752Z,15.90
2023-08-13T05:22:23.439Z,14.60
2023-08-13T05:24:51.088Z,10.05
2023-08-13T05:27:18.929Z,11.95
2023-08-13T05:29:46.726Z,17.45
2023-08-13T05:32:15.099Z,12.18
2023-08-13T05:34:43.041Z,16.40
2023-08-13T05:37:10.993Z,25.15
2023-08-13T05:39:39.758Z,11.93
2023-08-13T05:42:07.516Z,9.95
2023-08-13T05:44:35.255Z,8.57
2023-08-13T05:47:03.465Z,10.90
2023-08-13T05:49:32.463Z,10.65
2023-08-13T05:52:00.413Z,10.93
2023-08-13T05:54:28.082Z,10.85
2023-08-13T05:56:55.691Z,9.38
2023-08-13T05:59:23.665Z,11.10
2023-08-13T06:01:51.481Z,11.70
2023-08-13T06:04:19.253Z,11.75
2023-08-13T06:06:46.832Z,12.48
2023-08-13T06:09:14.457Z,12.18
2023-08-13T06:11:42.038Z,9.57
2023-08-13T06:14:09.427Z,6.25
2023-08-13T06:16:37.058Z,10.13
2023-08-13T06:19:04.692Z,11.07
2023-08-13T06:21:32.275Z,7.57
2023-08-13T06:23:59.973Z,7.00
2023-08-13T06:26:27.551Z,8.38
2023-08-13T06:28:55.030Z,8.85
2023-08-13T06:31:36.493Z,10.82
2023-08-13T06:34:09.431Z,10.45
2023-08-13T06:36:36.837Z,14.77
2023-08-13T06:39:05.052Z,7.18
2023-08-13T06:41:32.679Z,9.05
2023-08-13T06:44:04.633Z,6.43
2023-08-13T06:46:32.333Z,7.95
2023-08-13T06:49:00.068Z,8.65
2023-08-13T06:51:27.727Z,5.35
2023-08-13T06:53:55.345Z,10.95
2023-08-13T06:56:22.996Z,5.85
2023-08-13T06:58:50.614Z,6.55
2023-08-13T07:01:18.117Z,6.28
2023-08-13T07:03:45.895Z,6.90
2023-08-13T07:06:13.459Z,8.57
2023-08-13T07:08:41.146Z,6.25
2023-08-13T07:11:09.045Z,4.68
2023-08-13T07:13:45.905Z,4.50
2023-08-13T07:16:15.158Z,7.68
2023-08-13T07:18:43.574Z,3.95
2023-08-13T07:21:15.374Z,4.50
2023-08-13T07:23:43.678Z,3.78
2023-08-13T07:26:11.297Z,5.00
2023-08-13T07:28:41.704Z,5.05
2023-08-13T07:31:11.114Z,7.40
2023-08-13T07:34:04.433Z,4.22
2023-08-13T07:36:32.521Z,4.60
2023-08-13T07:40:18.237Z,5.25
2023-08-13T07:42:50.115Z,5.22
2023-08-13T07:45:18.049Z,4.07
2023-08-13T07:47:45.845Z,5.35
2023-08-13T07:50:15.563Z,3.88
2023-08-13T07:52:43.769Z,6.18
2023-08-13T07:55:11.789Z,3.90
2023-08-13T07:57:39.321Z,3.75
2023-08-13T08:00:09.393Z,3.60
2023-08-13T08:02:41.159Z,9.20
2023-08-13T08:05:10.387Z,4.78
2023-08-13T08:07:38.779Z,4.60
2023-08-13T08:10:07.766Z,3.80
2023-08-13T08:12:35.561Z,6.63
2023-08-13T08:15:04.470Z,6.03
2023-08-13T08:17:32.873Z,10.75
2023-08-13T08:20:01.526Z,5.22
2023-08-13T08:22:33.867Z,6.32
2023-08-13T08:25:01.911Z,7.82
2023-08-13T08:27:31.081Z,4.68
2023-08-13T11:46:21.747Z,4.65
2023-08-13T11:48:55.940Z,5.60
2023-08-13T15:50:19.233Z,9.15
2023-08-13T15:52:52.239Z,7.85
2023-08-13T15:55:22.805Z,9.95
2023-08-13T15:57:53.431Z,7.60
2023-08-13T16:00:33.134Z,8.88
2023-08-13T16:03:10.605Z,7.72
2023-08-13T16:05:57.050Z,9.57
2023-08-13T16:08:31.829Z,7.03
2023-08-13T16:11:25.986Z,10.57
2023-08-13T16:14:03.039Z,7.93
2023-08-13T16:16:31.396Z,9.40
2023-08-13T16:19:00.012Z,9.40
2023-08-13T16:21:27.952Z,7.47
2023-08-13T16:24:08.752Z,9.15
2023-08-13T16:26:37.044Z,9.07
2023-08-13T16:29:06.310Z,10.95
2023-08-13T16:31:34.186Z,9.73
2023-08-13T16:34:04.482Z,9.25
2023-08-13T16:36:34.485Z,8.52
2023-08-13T16:39:02.326Z,8.57
2023-08-13T16:41:30.197Z,11.25
2023-08-13T16:44:00.589Z,10.57
2023-08-13T16:46:28.998Z,8.45
2023-08-13T16:48:56.779Z,7.38
2023-08-13T16:51:25.580Z,7.93
2023-08-13T16:53:53.652Z,8.88
2023-08-13T16:56:23.974Z,9.93
2023-08-13T16:58:52.878Z,11.48
2023-08-13T17:01:20.932Z,9.88
2023-08-13T17:03:48.703Z,9.70
2023-08-13T17:06:17.030Z,10.27
2023-08-13T17:08:46.292Z,8.25
2023-08-13T17:11:16.114Z,7.40
2023-08-13T17:13:44.902Z,8.15
2023-08-13T17:16:12.799Z,7.50
2023-08-13T17:18:45.510Z,8.73
2023-08-13T17:21:13.412Z,10.77
2023-08-13T17:23:46.305Z,9.95
2023-08-13T17:26:13.995Z,10.15
2023-08-13T19:50:03.749Z,3.65
2023-08-13T19:52:33.443Z,5.68
2023-08-13T19:55:01.183Z,2.95
2023-08-13T19:57:39.436Z,2.80
2023-08-13T20:00:11.264Z,2.92
